createdAt,value
2022-11-15T00:00:57.267Z,3.95
2022-11-15T00:03:28.093Z,3.73
2022-11-15T00:05:54.554Z,3.53
2022-11-15T00:08:21.605Z,3.60
2022-11-15T00:11:02.545Z,3.44
2022-11-15T00:13:29.729Z,3.66
2022-11-15T00:16:01.672Z,3.90
2022-11-15T00:18:29.879Z,3.92
2022-11-15T00:20:57.357Z,3.85
2022-11-15T00:23:23.825Z,3.96
2022-11-15T00:26:00.203Z,4.13
2022-11-15T00:28:27.169Z,4.03
2022-11-15T00:30:54.109Z,3.92
2022-11-15T00:33:20.561Z,3.83
2022-11-15T00:35:47.007Z,4.01
2022-11-15T00:38:13.502Z,3.76
2022-11-15T00:40:39.946Z,4.15
2022-11-15T00:43:06.423Z,4.04
2022-11-15T00:45:32.865Z,4.07
2022-11-15T00:47:59.358Z,4.11
2022-11-15T00:50:25.801Z,4.01
2022-11-15T00:52:52.244Z,4.06
2022-11-15T00:55:20.146Z,4.01
2022-11-15T00:57:47.239Z,3.95
2022-11-15T01:00:14.144Z,3.70
2022-11-15T01:02:40.598Z,3.78
2022-11-15T01:05:07.353Z,3.94
2022-11-15T01:07:33.887Z,4.07
2022-11-15T01:10:00.361Z,4.13
2022-11-15T01:12:26.796Z,4.09
2022-11-15T01:14:53.250Z,3.75
2022-11-15T01:17:19.721Z,3.77
2022-11-15T01:19:46.203Z,3.85
2022-11-15T01:22:12.634Z,4.01
2022-11-15T01:24:39.092Z,3.90
2022-11-15T01:27:05.601Z,3.85
2022-11-15T01:29:32.058Z,4.21
2022-11-15T01:31:58.524Z,3.94
2022-11-15T01:34:24.958Z,4.04
2022-11-15T01:36:51.455Z,3.94
2022-11-15T01:39:17.977Z,3.99
2022-11-15T01:41:44.577Z,4.17
2022-11-15T01:44:53.059Z,3.94
2022-11-15T01:47:25.621Z,3.99
2022-11-15T01:50:10.684Z,3.88
2022-11-15T01:52:40.320Z,4.03
2022-11-15T01:55:22.419Z,3.79
2022-11-15T01:57:54.064Z,4.03
2022-11-15T02:00:20.751Z,3.72
2022-11-15T02:02:47.623Z,3.74
2022-11-15T02:05:14.120Z,3.78
2022-11-15T02:07:41.349Z,3.89
2022-11-15T02:10:28.807Z,4.01
2022-11-15T02:12:58.792Z,3.95
2022-11-15T02:15:36.273Z,3.75
2022-11-15T02:18:47.573Z,4.04
2022-11-15T02:21:41.954Z,4.06
2022-11-15T02:24:17.104Z,3.94
2022-11-15T02:27:11.179Z,3.71
2022-11-15T02:30:00.268Z,3.67
2022-11-15T02:32:35.771Z,3.39
2022-11-15T02:35:28.135Z,2.91
2022-11-15T02:38:07.688Z,2.72
2022-11-15T02:40:47.315Z,2.50
2022-11-15T02:43:27.514Z,2.37
2022-11-15T02:46:16.884Z,2.07
2022-11-15T02:48:44.167Z,2.04
2022-11-15T02:51:11.356Z,1.84
2022-11-15T02:53:37.845Z,1.87
2022-11-15T02:56:04.814Z,1.73
2022-11-15T02:59:01.832Z,1.73
2022-11-15T03:01:53.140Z,1.80
2022-11-15T03:04:48.522Z,1.65
2022-11-15T03:07:23.022Z,2.02
2022-11-15T03:10:07.488Z,1.98
2022-11-15T03:12:57.719Z,1.87
2022-11-15T03:15:43.210Z,1.80
2022-11-15T03:18:34.319Z,1.83
2022-11-15T03:21:07.511Z,1.87
2022-11-15T03:23:36.907Z,1.65
2022-11-15T03:26:10.343Z,1.82
2022-11-15T03:28:43.182Z,1.78
2022-11-15T03:31:14.900Z,1.96
2022-11-15T03:33:41.805Z,1.82
2022-11-15T03:36:08.660Z,1.95
2022-11-15T03:38:36.746Z,2.00
2022-11-15T03:41:23.182Z,1.91
2022-11-15T03:44:14.857Z,1.95
2022-11-15T03:46:58.356Z,1.75
2022-11-15T03:49:33.409Z,1.73
2022-11-15T03:52:01.074Z,1.59
2022-11-15T03:54:27.551Z,1.74
2022-11-15T03:56:53.998Z,1.68
2022-11-15T03:59:20.560Z,1.73
2022-11-15T04:01:47.009Z,1.88
2022-11-15T04:04:13.485Z,1.92
2022-11-15T04:06:39.968Z,1.74
2022-11-15T04:09:06.506Z,1.65
2022-11-15T04:11:32.978Z,1.63
2022-11-15T04:14:17.982Z,1.78
2022-11-15T04:16:44.432Z,1.71
2022-11-15T04:19:10.965Z,1.68
2022-11-15T04:21:37.442Z,1.65
2022-11-15T04:24:04.191Z,1.71
2022-11-15T04:26:30.964Z,1.73
2022-11-15T04:28:57.428Z,1.70
2022-11-15T04:31:24.207Z,1.82
2022-11-15T04:33:50.690Z,1.70
2022-11-15T04:36:17.150Z,1.66
2022-11-15T04:38:43.625Z,1.76
2022-11-15T04:41:10.076Z,1.49
2022-11-15T04:43:36.628Z,1.49
2022-11-15T04:46:03.175Z,1.65
2022-11-15T04:48:29.644Z,1.57
2022-11-15T04:50:56.070Z,1.77
2022-11-15T04:53:22.527Z,1.48
2022-11-15T04:55:49.021Z,1.49
2022-11-15T04:58:15.532Z,1.42
2022-11-15T05:00:42.010Z,1.57
2022-11-15T05:03:10.216Z,1.60
2022-11-15T05:05:37.076Z,1.62
2022-11-15T05:08:04.145Z,1.60
2022-11-15T05:10:30.923Z,1.70
2022-11-15T05:12:57.392Z,1.68
2022-11-15T05:15:23.988Z,1.66
2022-11-15T05:17:50.495Z,1.59
2022-11-15T05:20:16.972Z,1.65
2022-11-15T05:22:43.419Z,1.68
2022-11-15T05:25:09.934Z,1.60
2022-11-15T05:27:36.425Z,1.55
2022-11-15T05:30:02.940Z,1.75
2022-11-15T05:32:29.688Z,1.87
2022-11-15T05:34:56.244Z,1.62
2022-11-15T05:37:22.936Z,1.90
2022-11-15T05:39:49.404Z,2.17
2022-11-15T05:42:17.498Z,1.82
2022-11-15T05:44:49.376Z,1.94
2022-11-15T05:47:25.022Z,1.78
2022-11-15T05:49:54.464Z,1.91
2022-11-15T05:52:26.663Z,2.27
2022-11-15T05:54:54.972Z,2.03
2022-11-15T05:57:21.426Z,2.04
2022-11-15T05:59:48.362Z,2.10
2022-11-15T06:02:14.882Z,2.11
2022-11-15T06:04:41.392Z,2.46
2022-11-15T06:07:07.880Z,2.42
2022-11-15T06:09:34.380Z,2.44
2022-11-15T06:12:00.848Z,2.56
2022-11-15T06:14:27.301Z,2.50
2022-11-15T06:16:53.761Z,2.63
2022-11-15T06:19:20.249Z,2.66
2022-11-15T06:21:46.712Z,2.65
2022-11-15T06:24:13.216Z,2.67
2022-11-15T06:26:39.646Z,2.72
2022-11-15T06:29:06.109Z,2.70
2022-11-15T06:31:32.603Z,2.66
2022-11-15T06:33:59.050Z,2.81
2022-11-15T06:36:25.635Z,3.03
2022-11-15T06:38:52.122Z,2.76
2022-11-15T06:41:18.554Z,3.13
2022-11-15T06:43:45.005Z,3.14
2022-11-15T06:46:11.635Z,3.26
2022-11-15T06:48:38.135Z,2.98
2022-11-15T06:51:05.534Z,3.35
2022-11-15T06:53:33.071Z,3.24
2022-11-15T06:56:03.640Z,3.40
2022-11-15T06:58:30.118Z,3.49
2022-11-15T07:01:06.206Z,3.73
2022-11-15T07:03:33.123Z,4.22
2022-11-15T07:06:05.683Z,4.06
2022-11-15T07:08:33.660Z,4.23
2022-11-15T07:11:02.891Z,4.25
2022-11-15T07:13:31.660Z,4.02
2022-11-15T07:15:58.330Z,5.11
2022-11-15T07:18:24.788Z,4.60
2022-11-15T07:20:51.244Z,4.46
2022-11-15T07:23:17.855Z,4.75
2022-11-15T07:25:44.572Z,4.22
2022-11-15T07:28:11.274Z,4.35
2022-11-15T07:30:41.253Z,3.95
2022-11-15T07:33:11.479Z,3.78
2022-11-15T07:35:37.925Z,3.91
2022-11-15T07:38:04.382Z,4.06
2022-11-15T07:40:32.478Z,4.18
2022-11-15T07:43:03.475Z,4.04
2022-11-15T07:45:30.644Z,3.97
2022-11-15T07:47:57.678Z,4.05
2022-11-15T07:50:25.073Z,4.11
2022-11-15T07:52:56.046Z,4.42
2022-11-15T07:55:23.553Z,4.07
2022-11-15T07:57:50.409Z,4.51
2022-11-15T08:00:18.030Z,4.54
2022-11-15T08:02:44.688Z,4.75
2022-11-15T08:05:11.346Z,4.50
2022-11-15T08:07:37.804Z,5.00
2022-11-15T08:10:05.026Z,4.93
2022-11-15T08:12:31.690Z,4.66
2022-11-15T08:14:58.277Z,4.77
2022-11-15T08:17:25.522Z,4.07
2022-11-15T08:19:52.015Z,3.24
2022-11-15T08:22:19.097Z,3.08
2022-11-15T08:24:45.819Z,2.90
2022-11-15T08:27:12.522Z,3.34
2022-11-15T08:29:39.000Z,3.39
2022-11-15T08:32:05.643Z,2.58
2022-11-15T08:34:32.110Z,2.39
2022-11-15T08:36:58.538Z,3.09
2022-11-15T08:39:24.991Z,3.14
2022-11-15T08:41:51.500Z,3.23
2022-11-15T08:44:18.050Z,3.02
2022-11-15T08:46:46.791Z,4.60
2022-11-15T08:49:13.258Z,1.76
2022-11-15T08:51:39.775Z,2.15
2022-11-15T08:54:06.380Z,2.10
2022-11-15T08:56:32.835Z,2.35
2022-11-15T08:58:59.327Z,2.23
2022-11-15T09:01:25.857Z,2.31
2022-11-15T09:03:52.357Z,2.29
2022-11-15T09:06:18.970Z,2.24
2022-11-15T09:08:47.928Z,2.27
2022-11-15T09:11:15.019Z,2.24
2022-11-15T09:13:41.549Z,2.09
2022-11-15T09:16:08.003Z,2.48
2022-11-15T09:18:35.566Z,2.47
2022-11-15T09:21:02.266Z,2.80
2022-11-15T09:23:29.096Z,2.79
2022-11-15T09:26:01.313Z,2.70
2022-11-15T09:28:28.642Z,2.89
2022-11-15T09:31:04.300Z,2.81
2022-11-15T09:33:31.833Z,2.99
2022-11-15T09:36:08.222Z,2.91
2022-11-15T09:38:35.845Z,2.91
2022-11-15T09:41:14.642Z,3.21
2022-11-15T09:44:07.951Z,3.65
2022-11-15T09:47:08.168Z,2.99
2022-11-15T09:49:34.938Z,2.20
2022-11-15T09:52:01.712Z,1.97
2022-11-15T09:54:52.087Z,3.25
2022-11-15T09:57:21.449Z,4.39
2022-11-15T10:00:38.929Z,2.05
2022-11-15T10:03:12.339Z,1.86
2022-11-15T10:05:51.322Z,1.42
2022-11-15T10:08:25.495Z,1.57
2022-11-15T10:11:30.475Z,1.50
2022-11-15T10:13:50.002Z,1.54
2022-11-15T10:16:37.890Z,4.26
2022-11-15T10:19:15.536Z,2.23
2022-11-15T10:21:54.601Z,2.26
2022-11-15T10:24:27.554Z,2.42
2022-11-15T10:26:54.834Z,2.40
2022-11-15T10:29:26.757Z,2.40
2022-11-15T10:31:53.946Z,2.36
2022-11-15T10:34:23.554Z,2.65
2022-11-15T10:36:58.721Z,3.07
2022-11-15T10:39:26.073Z,2.81
2022-11-15T10:41:52.636Z,2.60
2022-11-15T10:44:20.606Z,2.56
2022-11-15T10:47:07.532Z,3.00
2022-11-15T10:49:35.494Z,2.97
2022-11-15T10:52:20.834Z,3.08
2022-11-15T10:55:02.366Z,4.02
2022-11-15T10:57:37.928Z,2.28
2022-11-15T11:00:13.150Z,2.40
2022-11-15T11:02:56.988Z,2.61
2022-11-15T11:05:39.964Z,4.55
2022-11-15T11:08:11.215Z,5.53
2022-11-15T11:10:51.570Z,3.66
2022-11-15T11:13:26.085Z,3.91
2022-11-15T11:16:12.056Z,3.70
2022-11-15T11:19:05.299Z,3.54
2022-11-15T11:21:36.808Z,4.10
2022-11-15T11:24:16.201Z,3.91
2022-11-15T11:27:07.734Z,3.15
2022-11-15T11:30:00.867Z,3.70
2022-11-15T11:32:40.139Z,4.10
2022-11-15T11:35:32.494Z,4.27
2022-11-15T11:38:29.480Z,4.84
2022-11-15T11:41:21.117Z,3.56
2022-11-15T11:44:05.711Z,2.06
2022-11-15T11:46:41.340Z,2.28
2022-11-15T11:49:20.929Z,3.50
2022-11-15T11:52:11.049Z,3.37
2022-11-15T11:54:51.016Z,2.48
2022-11-15T11:57:40.505Z,2.34
2022-11-15T12:00:25.345Z,2.70
2022-11-15T12:03:19.867Z,2.67
2022-11-15T12:06:01.130Z,2.65
2022-11-15T12:08:54.595Z,2.92
2022-11-15T12:11:29.926Z,6.09
2022-11-15T12:14:02.050Z,2.91
2022-11-15T12:16:31.938Z,3.44
2022-11-15T12:19:04.413Z,3.96
2022-11-15T12:22:04.980Z,4.82
2022-11-15T12:25:04.450Z,5.31
2022-11-15T12:27:36.639Z,6.75
2022-11-15T12:30:16.689Z,8.38
2022-11-15T12:32:57.791Z,8.69
2022-11-15T12:35:41.048Z,8.75
2022-11-15T12:38:13.045Z,9.55
2022-11-15T12:41:15.743Z,9.48
2022-11-15T12:43:44.319Z,9.14
2022-11-15T12:46:41.000Z,9.35
2022-11-15T12:49:28.988Z,10.05
2022-11-15T12:51:58.448Z,10.11
2022-11-15T12:54:24.882Z,9.64
2022-11-15T12:57:03.506Z,9.73
2022-11-15T13:00:02.805Z,9.71
2022-11-15T13:02:35.048Z,8.05
2022-11-15T13:05:16.684Z,8.42
2022-11-15T13:07:43.125Z,8.43
2022-11-15T13:10:12.559Z,9.00
2022-11-15T13:12:45.090Z,8.76
2022-11-15T13:15:14.538Z,8.25
2022-11-15T13:17:45.051Z,9.08
2022-11-15T13:20:14.399Z,9.29
2022-11-15T13:22:46.319Z,9.06
2022-11-15T13:25:22.109Z,8.85
2022-11-15T13:27:50.610Z,8.47
2022-11-15T13:30:23.774Z,8.10
2022-11-15T13:32:53.245Z,8.79
2022-11-15T13:35:23.193Z,8.82
2022-11-15T13:37:51.032Z,8.44
2022-11-15T13:40:28.576Z,8.56
2022-11-15T13:42:57.619Z,8.18
2022-11-15T13:45:25.117Z,8.20
2022-11-15T13:47:57.423Z,8.49
2022-11-15T13:50:32.741Z,8.28
2022-11-15T13:53:05.395Z,8.85
2022-11-15T13:55:33.841Z,8.61
2022-11-15T13:58:04.535Z,8.61
2022-11-15T14:00:43.277Z,8.75
2022-11-15T14:03:20.315Z,9.53
2022-11-15T14:06:08.399Z,9.58
2022-11-15T14:08:36.388Z,9.73
2022-11-15T14:11:20.474Z,9.22
2022-11-15T14:14:08.567Z,8.79
2022-11-15T14:16:36.333Z,8.99
2022-11-15T14:19:04.398Z,9.32
2022-11-15T14:21:31.272Z,9.20
2022-11-15T14:24:18.562Z,8.36
2022-11-15T14:26:45.331Z,8.74
2022-11-15T14:29:30.406Z,8.73
2022-11-15T14:32:16.657Z,8.76
2022-11-15T14:34:44.072Z,9.05
2022-11-15T14:37:25.919Z,8.55
2022-11-15T14:39:53.741Z,8.29
2022-11-15T14:42:22.822Z,8.63
2022-11-15T14:44:49.268Z,8.68
2022-11-15T14:47:16.246Z,8.34
2022-11-15T14:49:43.640Z,8.20
2022-11-15T14:52:32.996Z,8.41
2022-11-15T14:55:01.194Z,8.11
2022-11-15T14:57:27.641Z,8.75
2022-11-15T14:59:54.509Z,8.59
2022-11-15T15:02:25.195Z,8.46
2022-11-15T15:04:52.692Z,8.67
2022-11-15T15:07:19.359Z,8.15
2022-11-15T15:09:46.658Z,8.12
2022-11-15T15:12:18.530Z,8.16
2022-11-15T15:14:46.646Z,8.44
2022-11-15T15:17:13.159Z,9.31
2022-11-15T15:19:39.605Z,10.12
2022-11-15T15:22:06.470Z,8.78
2022-11-15T15:24:33.173Z,7.94
2022-11-15T15:26:59.639Z,7.20
2022-11-15T15:29:26.147Z,7.43
2022-11-15T15:31:52.649Z,7.66
2022-11-15T15:34:19.113Z,8.32
2022-11-15T15:36:45.600Z,7.88
2022-11-15T15:39:12.084Z,8.19
2022-11-15T15:41:38.543Z,9.17
2022-11-15T15:44:05.063Z,8.59
2022-11-15T15:46:31.523Z,7.98
2022-11-15T15:48:58.022Z,8.16
2022-11-15T15:51:24.463Z,8.55
2022-11-15T15:53:50.943Z,8.36
2022-11-15T15:56:17.402Z,8.79
2022-11-15T15:58:43.861Z,9.89
2022-11-15T16:01:10.345Z,12.21
2022-11-15T16:03:36.872Z,9.55
2022-11-15T16:06:03.545Z,10.17
2022-11-15T16:08:42.591Z,10.10
2022-11-15T16:11:16.521Z,11.62
2022-11-15T16:13:43.106Z,11.40
2022-11-15T16:16:14.278Z,10.21
2022-11-15T16:18:40.769Z,9.03
2022-11-15T16:21:09.431Z,9.32
2022-11-15T16:23:35.897Z,8.27
2022-11-15T16:26:02.401Z,8.60
2022-11-15T16:28:32.002Z,8.73
2022-11-15T16:31:11.346Z,8.66
2022-11-15T16:33:38.936Z,8.83
2022-11-15T16:36:13.435Z,10.02
2022-11-15T16:38:39.953Z,9.52
2022-11-15T16:41:06.460Z,9.25
2022-11-15T16:43:32.967Z,12.45
2022-11-15T16:46:13.448Z,15.38
2022-11-15T16:48:40.170Z,9.63
2022-11-15T16:51:07.421Z,10.98
2022-11-15T16:53:33.931Z,12.93
2022-11-15T16:56:00.399Z,10.82
2022-11-15T16:58:26.912Z,9.61
2022-11-15T17:00:55.637Z,9.42
2022-11-15T17:03:24.285Z,9.64
2022-11-15T17:05:51.316Z,9.25
2022-11-15T17:08:17.838Z,9.97
2022-11-15T17:10:44.359Z,10.78
2022-11-15T17:13:13.941Z,10.35
2022-11-15T17:15:40.629Z,9.44
2022-11-15T17:18:07.107Z,9.37
2022-11-15T17:20:33.627Z,9.42
2022-11-15T17:23:00.140Z,10.07
2022-11-15T17:25:26.748Z,10.32
2022-11-15T17:27:53.194Z,9.00
2022-11-15T17:30:19.802Z,8.50
2022-11-15T17:32:46.316Z,9.10
2022-11-15T17:35:15.509Z,9.18
2022-11-15T17:37:43.226Z,8.94
2022-11-15T17:40:10.462Z,8.98
2022-11-15T17:42:37.172Z,9.12
2022-11-15T17:45:09.399Z,8.87
2022-11-15T17:47:37.523Z,8.19
2022-11-15T17:50:04.391Z,8.37
2022-11-15T17:52:30.976Z,8.53
2022-11-15T17:54:57.464Z,8.20
2022-11-15T17:57:23.906Z,8.26
2022-11-15T17:59:50.448Z,8.09
2022-11-15T18:02:17.035Z,8.49
2022-11-15T18:04:43.496Z,8.07
2022-11-15T18:07:10.173Z,7.82
2022-11-15T18:09:36.707Z,7.34
2022-11-15T18:12:03.221Z,7.29
2022-11-15T18:14:29.709Z,7.57
2022-11-15T18:16:56.178Z,7.78
2022-11-15T18:19:22.621Z,8.02
2022-11-15T18:21:49.086Z,8.24
2022-11-15T18:24:15.561Z,8.48
2022-11-15T18:26:42.075Z,8.42
2022-11-15T18:29:08.546Z,8.89
2022-11-15T18:31:35.026Z,9.20
2022-11-15T18:34:01.543Z,9.21
2022-11-15T18:36:30.340Z,8.92
2022-11-15T18:39:00.930Z,8.46
2022-11-15T18:41:27.408Z,8.67
2022-11-15T18:43:55.090Z,8.93
2022-11-15T18:46:24.458Z,8.56
2022-11-15T18:48:52.608Z,8.54
2022-11-15T18:51:22.424Z,8.68
2022-11-15T18:53:51.995Z,8.41
2022-11-15T18:56:20.912Z,8.13
2022-11-15T18:58:54.073Z,8.46
2022-11-15T19:01:23.851Z,8.65
2022-11-15T19:03:53.335Z,8.42
2022-11-15T19:06:22.822Z,8.44
2022-11-15T19:08:51.549Z,8.65
2022-11-15T19:11:24.391Z,9.05
2022-11-15T19:13:55.483Z,8.87
2022-11-15T19:16:23.077Z,8.64
2022-11-15T19:18:56.747Z,9.04
2022-11-15T19:21:24.715Z,8.96
2022-11-15T19:23:51.561Z,9.23
2022-11-15T19:26:18.310Z,9.12
2022-11-15T19:28:45.179Z,9.12
2022-11-15T19:31:14.596Z,8.96
2022-11-15T19:33:43.923Z,9.05
2022-11-15T19:36:17.288Z,9.27
2022-11-15T19:38:43.850Z,8.95
2022-11-15T19:41:16.100Z,9.17
2022-11-15T19:43:43.335Z,9.63
2022-11-15T19:46:12.056Z,9.50
2022-11-15T19:48:38.994Z,9.75
2022-11-15T19:51:08.487Z,9.17
2022-11-15T19:53:35.380Z,9.84
2022-11-15T19:56:14.232Z,9.34
2022-11-15T19:58:41.490Z,9.75
2022-11-15T20:01:23.677Z,9.84
2022-11-15T20:03:52.435Z,9.53
2022-11-15T20:06:21.861Z,9.84
2022-11-15T20:08:48.444Z,9.23
2022-11-15T20:11:16.309Z,9.71
2022-11-15T20:13:42.935Z,9.98
2022-11-15T20:16:18.426Z,10.68
2022-11-15T20:18:45.429Z,11.37
2022-11-15T20:21:12.235Z,11.54
2022-11-15T20:23:38.736Z,10.23
2022-11-15T20:26:07.078Z,10.88
2022-11-15T20:28:34.089Z,11.71
2022-11-15T20:31:01.626Z,11.05
2022-11-15T20:33:31.098Z,9.80
2022-11-15T20:35:57.592Z,11.24
2022-11-15T20:38:24.719Z,10.37
2022-11-15T20:40:53.691Z,10.20
2022-11-15T20:43:23.986Z,10.88
2022-11-15T20:45:50.432Z,9.92
2022-11-15T20:48:17.626Z,9.89
2022-11-15T20:50:45.686Z,9.97
2022-11-15T20:53:15.320Z,10.37
2022-11-15T20:55:43.865Z,12.02
2022-11-15T20:58:10.857Z,12.43
2022-11-15T21:00:38.155Z,12.62
2022-11-15T21:03:07.357Z,12.47
2022-11-15T21:05:41.864Z,11.98
2022-11-15T21:08:09.956Z,11.48
2022-11-15T21:10:36.548Z,11.17
2022-11-15T21:13:03.093Z,11.40
2022-11-15T21:15:29.559Z,10.75
2022-11-15T21:17:56.012Z,11.18
2022-11-15T21:20:22.483Z,10.94
2022-11-15T21:22:48.946Z,11.25
2022-11-15T21:25:15.509Z,10.87
2022-11-15T21:27:41.988Z,10.41
2022-11-15T21:30:08.778Z,10.75
2022-11-15T21:32:35.256Z,10.58
2022-11-15T21:35:01.738Z,10.39
2022-11-15T21:37:28.212Z,10.13
2022-11-15T21:39:54.684Z,9.77
2022-11-15T21:42:21.142Z,9.82
2022-11-15T21:44:47.615Z,10.50
2022-11-15T21:47:14.107Z,10.25
2022-11-15T21:49:40.574Z,9.56
2022-11-15T21:52:07.050Z,9.04
2022-11-15T21:54:33.524Z,9.01
2022-11-15T21:56:59.975Z,9.12
2022-11-15T21:59:26.409Z,9.61
2022-11-15T22:01:52.869Z,9.65
2022-11-15T22:04:19.341Z,10.43
2022-11-15T22:06:45.787Z,10.85
2022-11-15T22:09:12.259Z,10.65
2022-11-15T22:11:38.751Z,9.23
2022-11-15T22:14:05.201Z,8.74
2022-11-15T22:16:32.258Z,8.81
2022-11-15T22:18:59.205Z,9.28
2022-11-15T22:21:25.650Z,8.77
2022-11-15T22:23:52.164Z,7.90
2022-11-15T22:26:23.521Z,7.54
2022-11-15T22:28:51.202Z,7.44
2022-11-15T22:31:17.902Z,8.25
2022-11-15T22:33:44.399Z,8.39
2022-11-15T22:36:12.644Z,8.20
2022-11-15T22:38:39.523Z,8.86
2022-11-15T22:41:06.492Z,8.68
2022-11-15T22:43:32.980Z,8.02
2022-11-15T22:46:01.960Z,8.06
2022-11-15T22:48:34.556Z,7.95
2022-11-15T22:51:02.109Z,7.52
2022-11-15T22:53:29.614Z,7.23
2022-11-15T22:55:58.454Z,6.96
2022-11-15T22:58:27.241Z,6.60
2022-11-15T23:00:56.439Z,6.26
2022-11-15T23:03:24.647Z,6.52
2022-11-15T23:05:51.890Z,6.56
2022-11-15T23:08:19.442Z,6.68
2022-11-15T23:10:46.363Z,7.01
2022-11-15T23:13:14.054Z,7.03
2022-11-15T23:15:40.500Z,6.78
2022-11-15T23:18:06.985Z,7.10
2022-11-15T23:20:42.880Z,7.24
2022-11-15T23:23:11.655Z,7.34
2022-11-15T23:25:38.160Z,7.40
2022-11-15T23:28:05.337Z,7.77
2022-11-15T23:30:36.612Z,6.94
2022-11-15T23:33:03.069Z,6.99
2022-11-15T23:35:29.507Z,6.74
2022-11-15T23:37:56.048Z,6.87
2022-11-15T23:40:22.473Z,7.08
2022-11-15T23:42:48.948Z,7.35
2022-11-15T23:45:15.622Z,7.05
2022-11-15T23:47:42.180Z,7.24
2022-11-15T23:50:09.404Z,7.51
2022-11-15T23:52:35.901Z,7.58
2022-11-15T23:55:02.357Z,7.98
2022-11-15T23:57:28.834Z,6.96
2022-11-15T23:59:55.307Z,4.97
